createdAt,value
2023-09-17T00:00:25.200Z,14.82
2023-09-17T00:01:27.055Z,15.52
2023-09-17T00:02:30.310Z,14.90
2023-09-17T00:03:32.309Z,14.38
2023-09-17T00:04:34.183Z,11.15
2023-09-17T00:05:36.017Z,13.15
2023-09-17T00:06:37.742Z,12.15
2023-09-17T00:07:39.570Z,12.82
2023-09-17T00:08:41.214Z,15.93
2023-09-17T00:09:42.820Z,14.85
2023-09-17T00:10:44.557Z,14.68
2023-09-17T00:11:46.528Z,12.68
2023-09-17T00:12:48.294Z,16.88
2023-09-17T00:13:50.222Z,16.10
2023-09-17T00:14:52.123Z,13.07
2023-09-17T00:15:53.697Z,14.93
2023-09-17T00:16:55.735Z,12.68
2023-09-17T00:17:58.848Z,16.98
2023-09-17T00:19:00.748Z,13.50
2023-09-17T00:20:02.468Z,15.98
2023-09-17T00:21:04.092Z,14.23
2023-09-17T00:22:05.669Z,15.57
2023-09-17T00:23:07.361Z,13.45
2023-09-17T00:24:09.279Z,15.40
2023-09-17T00:25:11.017Z,13.48
2023-09-17T00:26:12.717Z,14.05
2023-09-17T00:27:19.261Z,12.48
2023-09-17T00:28:20.917Z,15.95
2023-09-17T00:29:22.628Z,12.02
2023-09-17T00:30:24.233Z,13.02
2023-09-17T00:31:25.905Z,15.13
2023-09-17T00:32:27.596Z,13.40
2023-09-17T00:33:30.631Z,13.27
2023-09-17T00:34:32.332Z,14.80
2023-09-17T00:35:34.043Z,13.60
2023-09-17T00:36:35.646Z,12.45
2023-09-17T00:37:37.296Z,13.02
2023-09-17T00:38:38.904Z,12.27
2023-09-17T00:39:40.516Z,14.15
2023-09-17T00:40:42.133Z,13.55
2023-09-17T00:41:43.824Z,13.93
2023-09-17T00:42:46.009Z,13.30
2023-09-17T00:43:47.721Z,12.55
2023-09-17T00:44:49.301Z,13.18
2023-09-17T00:45:51.343Z,14.73
2023-09-17T00:46:53.124Z,15.35
2023-09-17T00:47:55.945Z,12.77
2023-09-17T00:49:00.054Z,12.68
2023-09-17T00:50:02.621Z,11.68
2023-09-17T00:51:04.438Z,13.55
2023-09-17T00:52:15.873Z,14.13
2023-09-17T00:53:17.562Z,14.20
2023-09-17T00:54:22.682Z,10.70
2023-09-17T00:55:24.406Z,11.93
2023-09-17T00:56:26.556Z,14.10
2023-09-17T00:57:28.485Z,15.00
2023-09-17T00:58:31.020Z,12.63
2023-09-17T00:59:32.748Z,12.50
2023-09-17T01:00:34.385Z,14.70
2023-09-17T01:01:36.649Z,12.43
2023-09-17T01:02:40.459Z,10.55
2023-09-17T01:04:47.094Z,12.63
2023-09-17T01:05:48.974Z,13.20
2023-09-17T01:06:51.657Z,14.35
2023-09-17T01:07:54.674Z,9.95
2023-09-17T01:08:57.483Z,12.43
2023-09-17T01:09:59.221Z,15.00
2023-09-17T01:11:01.034Z,14.82
2023-09-17T01:12:02.914Z,11.13
2023-09-17T01:13:04.885Z,11.70
2023-09-17T01:14:07.009Z,13.43
2023-09-17T01:15:09.856Z,11.13
2023-09-17T01:16:11.721Z,12.07
2023-09-17T01:17:13.528Z,11.30
2023-09-17T01:18:15.318Z,9.35
2023-09-17T01:19:22.084Z,10.57
2023-09-17T01:20:29.928Z,10.43
2023-09-17T01:21:36.398Z,12.18
2023-09-17T01:22:43.851Z,12.60
2023-09-17T01:23:52.077Z,10.60
2023-09-17T01:25:03.373Z,12.63
2023-09-17T01:26:11.177Z,12.15
2023-09-17T01:27:16.009Z,11.50
2023-09-17T01:28:18.355Z,12.98
2023-09-17T01:44:34.043Z,11.52
2023-09-17T01:45:36.244Z,9.80
2023-09-17T01:46:40.670Z,13.45
2023-09-17T01:47:44.265Z,9.32
2023-09-17T01:48:47.081Z,15.20
2023-09-17T01:49:49.680Z,13.38
2023-09-17T01:50:52.026Z,10.27
2023-09-17T01:51:55.470Z,13.73
2023-09-17T01:52:57.680Z,11.73
2023-09-17T01:54:00.224Z,14.25
2023-09-17T01:55:02.594Z,13.57
2023-09-17T01:56:04.423Z,11.25
2023-09-17T01:57:06.145Z,14.90
2023-09-17T01:58:07.825Z,14.23
2023-09-17T01:59:09.478Z,12.80
2023-09-17T02:00:14.305Z,12.15
2023-09-17T02:01:16.008Z,9.85
2023-09-17T02:02:17.670Z,12.32
2023-09-17T02:03:19.542Z,12.38
2023-09-17T02:04:21.254Z,11.77
2023-09-17T02:05:23.879Z,11.30
2023-09-17T02:06:25.674Z,10.77
2023-09-17T02:07:27.321Z,10.18
2023-09-17T02:08:28.943Z,11.23
2023-09-17T02:09:30.577Z,12.25
2023-09-17T02:10:32.331Z,12.45
2023-09-17T02:11:34.094Z,13.15
2023-09-17T02:12:35.746Z,11.55
2023-09-17T02:13:37.353Z,9.40
2023-09-17T02:14:39.112Z,11.32
2023-09-17T02:15:42.184Z,9.30
2023-09-17T02:16:43.932Z,12.38
2023-09-17T02:17:46.000Z,14.88
2023-09-17T02:18:47.712Z,12.00
2023-09-17T02:19:49.459Z,11.73
2023-09-17T02:20:51.113Z,11.18
2023-09-17T02:21:53.029Z,11.45
2023-09-17T02:22:54.686Z,11.00
2023-09-17T02:23:56.382Z,10.75
2023-09-17T02:24:57.936Z,8.65
2023-09-17T02:25:59.546Z,10.52
2023-09-17T02:27:02.738Z,10.82
2023-09-17T02:28:04.896Z,9.93
2023-09-17T02:29:07.716Z,9.35
2023-09-17T02:30:09.790Z,8.20
2023-09-17T02:31:12.872Z,11.02
2023-09-17T02:32:14.511Z,9.23
2023-09-17T02:33:16.147Z,8.18
2023-09-17T02:34:17.784Z,7.50
2023-09-17T02:35:19.608Z,8.25
2023-09-17T02:36:21.221Z,7.20
2023-09-17T02:37:23.042Z,8.27
2023-09-17T02:38:24.704Z,8.02
2023-09-17T02:39:26.461Z,7.68
2023-09-17T02:40:28.159Z,5.85
2023-09-17T02:41:29.869Z,6.22
2023-09-17T02:42:32.983Z,6.63
2023-09-17T02:43:34.753Z,7.05
2023-09-17T02:44:36.582Z,7.60
2023-09-17T02:45:38.171Z,6.03
2023-09-17T02:46:41.398Z,6.25
2023-09-17T02:47:43.180Z,7.47
2023-09-17T02:48:44.857Z,4.68
2023-09-17T02:49:46.503Z,6.38
2023-09-17T02:50:48.184Z,7.40
2023-09-17T02:51:50.560Z,5.60
2023-09-17T02:52:52.354Z,6.47
2023-09-17T02:53:54.173Z,5.75
2023-09-17T02:54:55.870Z,7.90
2023-09-17T02:55:57.789Z,9.32
2023-09-17T02:56:59.402Z,8.95
2023-09-17T02:58:01.238Z,7.15
2023-09-17T02:59:03.102Z,8.00
2023-09-17T03:00:05.692Z,7.65
2023-09-17T03:01:14.597Z,8.73
2023-09-17T03:02:17.721Z,8.25
2023-09-17T03:03:19.685Z,7.32
2023-09-17T03:04:21.370Z,6.03
2023-09-17T03:05:22.979Z,6.85
2023-09-17T03:06:24.635Z,6.82
2023-09-17T03:07:26.334Z,7.15
2023-09-17T03:08:27.952Z,7.47
2023-09-17T03:09:30.933Z,6.32
2023-09-17T03:10:32.610Z,7.07
2023-09-17T03:11:34.305Z,8.23
2023-09-17T03:12:37.447Z,10.52
2023-09-17T03:13:39.169Z,8.70
2023-09-17T03:14:41.215Z,9.35
2023-09-17T03:15:44.578Z,9.23
2023-09-17T03:17:52.998Z,8.27
2023-09-17T03:18:57.368Z,8.93
2023-09-17T03:19:59.050Z,10.77
2023-09-17T03:21:05.975Z,8.63
2023-09-17T03:22:07.539Z,7.88
2023-09-17T03:23:10.007Z,8.38
2023-09-17T03:24:13.365Z,8.82
2023-09-17T03:25:16.483Z,9.75
2023-09-17T03:26:22.021Z,8.23
2023-09-17T03:27:23.693Z,9.05
2023-09-17T03:28:25.874Z,8.30
2023-09-17T03:29:27.672Z,8.55
2023-09-17T03:30:29.737Z,8.73
2023-09-17T03:31:33.387Z,7.68
2023-09-17T03:32:36.657Z,7.35
2023-09-17T03:33:45.564Z,9.35
2023-09-17T03:34:47.621Z,8.75
2023-09-17T03:35:49.454Z,11.63
2023-09-17T03:36:51.140Z,8.27
2023-09-17T03:37:53.832Z,7.43
2023-09-17T03:38:55.615Z,8.82
2023-09-17T03:40:07.463Z,7.13
2023-09-17T03:41:11.125Z,7.22
2023-09-17T03:42:14.120Z,10.63
2023-09-17T03:43:17.646Z,8.65
2023-09-17T03:44:20.858Z,7.20
2023-09-17T03:45:24.280Z,8.45
2023-09-17T03:46:28.107Z,8.15
2023-09-17T03:47:30.289Z,7.75
2023-09-17T03:48:32.444Z,8.50
2023-09-17T03:49:35.490Z,7.07
2023-09-17T03:50:37.262Z,7.60
2023-09-17T03:51:38.884Z,7.97
2023-09-17T03:52:43.275Z,8.07
2023-09-17T03:53:45.037Z,6.70
2023-09-17T03:54:47.315Z,6.40
2023-09-17T03:55:49.200Z,6.32
2023-09-17T03:56:51.042Z,9.07
2023-09-17T03:57:52.947Z,8.60
2023-09-17T03:59:59.129Z,9.43
2023-09-17T04:01:00.787Z,8.88
2023-09-17T04:02:02.718Z,8.00
2023-09-17T04:03:05.091Z,7.85
2023-09-17T04:04:06.892Z,7.10
2023-09-17T04:05:11.384Z,6.95
2023-09-17T04:06:14.221Z,6.50
2023-09-17T04:07:16.370Z,5.90
2023-09-17T04:08:18.180Z,8.57
2023-09-17T04:09:20.140Z,6.85
2023-09-17T04:10:21.879Z,6.95
2023-09-17T04:11:24.695Z,6.53
2023-09-17T04:12:26.299Z,6.75
2023-09-17T04:13:27.944Z,6.38
2023-09-17T04:14:31.049Z,11.13
2023-09-17T04:15:32.863Z,7.03
2023-09-17T04:16:34.856Z,6.25
2023-09-17T04:17:36.655Z,6.68
2023-09-17T04:18:38.463Z,8.38
2023-09-17T04:19:40.086Z,7.78
2023-09-17T04:20:43.263Z,5.35
2023-09-17T04:21:44.903Z,7.18
2023-09-17T04:22:48.630Z,5.75
2023-09-17T04:23:50.556Z,7.07
2023-09-17T04:24:52.380Z,6.13
2023-09-17T04:25:56.986Z,9.85
2023-09-17T04:26:58.689Z,5.63
2023-09-17T04:28:00.401Z,7.60
2023-09-17T04:29:03.520Z,5.60
2023-09-17T04:30:08.628Z,6.30
2023-09-17T04:31:10.481Z,6.57
2023-09-17T04:32:12.236Z,8.23
2023-09-17T04:33:14.216Z,6.68
2023-09-17T04:34:16.186Z,6.20
2023-09-17T04:35:19.226Z,6.57
2023-09-17T04:36:23.500Z,5.95
2023-09-17T04:37:28.053Z,6.40
2023-09-17T04:38:29.735Z,6.40
2023-09-17T04:39:32.383Z,5.63
2023-09-17T04:40:34.307Z,5.88
2023-09-17T04:41:40.283Z,5.85
2023-09-17T04:42:43.860Z,6.28
2023-09-17T04:43:48.627Z,5.45
2023-09-17T04:44:50.763Z,6.75
2023-09-17T04:45:52.385Z,5.75
2023-09-17T04:46:58.933Z,5.00
2023-09-17T04:48:00.828Z,5.97
2023-09-17T04:49:03.408Z,5.70
2023-09-17T04:50:08.254Z,5.22
2023-09-17T04:51:10.571Z,5.60
2023-09-17T04:52:14.288Z,5.30
2023-09-17T04:53:16.211Z,6.93
2023-09-17T04:54:19.583Z,5.32
2023-09-17T04:55:21.236Z,5.38
2023-09-17T04:56:25.942Z,5.00
2023-09-17T04:57:27.914Z,5.63
2023-09-17T04:58:30.677Z,4.63
2023-09-17T04:59:35.148Z,4.53
2023-09-17T05:00:37.907Z,4.70
2023-09-17T05:01:40.783Z,7.20
2023-09-17T05:02:42.698Z,7.03
2023-09-17T05:03:45.298Z,6.20
2023-09-17T05:04:47.191Z,6.35
2023-09-17T05:05:49.428Z,7.65
2023-09-17T05:06:51.065Z,7.85
2023-09-17T05:07:54.379Z,8.07
2023-09-17T05:08:56.251Z,8.98
2023-09-17T05:09:58.012Z,8.65
2023-09-17T05:10:59.605Z,6.32
2023-09-17T05:12:01.498Z,8.00
2023-09-17T05:13:03.339Z,7.53
2023-09-17T05:14:05.116Z,7.53
2023-09-17T05:15:07.549Z,6.45
2023-09-17T05:16:09.942Z,6.20
2023-09-17T05:17:11.855Z,6.53
2023-09-17T05:18:13.714Z,8.80
2023-09-17T05:19:19.733Z,6.03
2023-09-17T05:20:21.471Z,6.07
2023-09-17T05:21:23.208Z,7.00
2023-09-17T05:22:24.941Z,6.43
2023-09-17T05:23:28.107Z,6.97
2023-09-17T05:24:35.690Z,8.43
2023-09-17T05:25:37.521Z,8.23
2023-09-17T05:26:39.625Z,9.60
2023-09-17T05:27:41.266Z,13.63
2023-09-17T05:28:43.049Z,13.38
2023-09-17T05:29:46.118Z,10.50
2023-09-17T05:30:47.744Z,11.85
2023-09-17T05:31:49.476Z,11.73
2023-09-17T05:32:51.451Z,11.70
2023-09-17T05:33:53.562Z,9.73
2023-09-17T05:34:58.058Z,9.68
2023-09-17T05:35:59.695Z,10.18
2023-09-17T05:37:03.043Z,10.50
2023-09-17T05:38:05.097Z,9.85
2023-09-17T05:39:08.106Z,8.57
2023-09-17T05:40:10.637Z,8.98
2023-09-17T05:41:12.289Z,8.68
2023-09-17T05:42:14.182Z,8.20
2023-09-17T05:43:16.156Z,7.05
2023-09-17T05:44:17.889Z,8.93
2023-09-17T05:45:19.790Z,7.03
2023-09-17T05:46:21.506Z,7.47
2023-09-17T05:47:24.140Z,7.43
2023-09-17T05:48:25.985Z,8.05
2023-09-17T05:49:28.112Z,9.48
2023-09-17T05:50:30.022Z,7.95
2023-09-17T05:51:31.679Z,7.75
2023-09-17T05:52:33.358Z,7.88
2023-09-17T05:53:35.400Z,7.10
2023-09-17T05:54:38.588Z,8.60
2023-09-17T05:55:40.485Z,8.40
2023-09-17T05:56:42.115Z,10.77
2023-09-17T05:57:44.219Z,8.63
2023-09-17T05:58:46.423Z,8.35
2023-09-17T05:59:48.125Z,7.93
2023-09-17T06:00:50.349Z,8.20
2023-09-17T06:01:52.169Z,7.53
2023-09-17T06:02:53.855Z,9.90
2023-09-17T06:03:55.774Z,10.43
2023-09-17T06:04:59.048Z,9.55
2023-09-17T06:06:02.688Z,9.27
2023-09-17T06:07:05.313Z,8.07
2023-09-17T06:08:07.040Z,10.57
2023-09-17T06:09:08.827Z,10.32
2023-09-17T06:10:12.512Z,7.45
2023-09-17T06:11:14.256Z,8.20
2023-09-17T06:12:15.928Z,8.18
2023-09-17T06:13:17.643Z,7.20
2023-09-17T06:14:19.411Z,8.10
2023-09-17T06:15:21.551Z,10.75
2023-09-17T06:16:23.514Z,7.57
2023-09-17T06:17:25.456Z,7.30
2023-09-17T06:18:30.067Z,7.95
2023-09-17T06:19:31.763Z,8.77
2023-09-17T06:20:33.478Z,8.23
2023-09-17T06:21:35.228Z,9.77
2023-09-17T06:22:36.856Z,9.73
2023-09-17T06:23:39.242Z,12.20
2023-09-17T06:24:41.818Z,18.42
2023-09-17T06:25:44.864Z,14.10
2023-09-17T06:26:46.506Z,14.05
2023-09-17T06:27:48.185Z,13.38
2023-09-17T06:28:49.803Z,12.23
2023-09-17T06:29:52.787Z,12.20
2023-09-17T06:30:56.997Z,14.15
2023-09-17T06:32:00.505Z,14.52
2023-09-17T06:33:03.911Z,12.50
2023-09-17T06:34:06.491Z,12.27
2023-09-17T06:35:08.851Z,14.48
2023-09-17T06:36:10.849Z,13.75
2023-09-17T06:37:12.596Z,13.27
2023-09-17T06:38:14.320Z,15.23
2023-09-17T06:39:16.129Z,13.65
2023-09-17T06:40:18.321Z,14.52
2023-09-17T06:41:21.809Z,16.48
2023-09-17T06:42:23.719Z,12.43
2023-09-17T06:43:26.505Z,15.60
2023-09-17T06:44:28.324Z,11.88
2023-09-17T06:45:30.848Z,13.50
2023-09-17T06:46:33.456Z,12.55
2023-09-17T06:47:35.545Z,12.70
2023-09-17T06:48:37.365Z,13.15
2023-09-17T06:49:39.119Z,11.23
2023-09-17T06:50:40.905Z,10.77
2023-09-17T06:51:42.561Z,12.18
2023-09-17T06:52:44.283Z,11.55
2023-09-17T06:53:46.358Z,11.85
2023-09-17T06:54:48.023Z,12.32
2023-09-17T06:55:49.813Z,13.90
2023-09-17T06:56:52.947Z,11.48
2023-09-17T06:57:54.782Z,10.95
2023-09-17T06:58:58.304Z,10.18
2023-09-17T07:00:00.027Z,11.70
2023-09-17T07:01:01.797Z,10.38
2023-09-17T07:02:03.583Z,11.73
2023-09-17T07:03:05.830Z,10.20
2023-09-17T07:04:09.152Z,12.13
2023-09-17T07:05:12.480Z,11.32
2023-09-17T07:06:14.610Z,13.80
2023-09-17T07:07:16.711Z,10.27
2023-09-17T07:08:18.656Z,9.60
2023-09-17T07:09:20.396Z,10.68
2023-09-17T07:10:22.073Z,11.52
2023-09-17T07:11:23.913Z,11.27
2023-09-17T07:12:27.410Z,13.90
2023-09-17T07:13:29.079Z,10.70
2023-09-17T07:14:33.645Z,11.63
2023-09-17T07:15:35.265Z,10.60
2023-09-17T07:16:37.080Z,12.35
2023-09-17T07:17:38.893Z,11.68
2023-09-17T07:18:40.606Z,11.02
2023-09-17T07:19:42.441Z,11.15
2023-09-17T07:20:44.060Z,11.10
2023-09-17T07:21:45.693Z,12.30
2023-09-17T07:22:47.651Z,11.23
2023-09-17T07:23:49.576Z,12.13
2023-09-17T07:24:51.419Z,13.15
2023-09-17T07:25:53.177Z,11.38
2023-09-17T07:26:55.056Z,15.20
2023-09-17T07:27:58.038Z,13.38
2023-09-17T07:28:59.753Z,13.10
2023-09-17T07:30:01.411Z,12.68
2023-09-17T07:31:03.200Z,12.43
2023-09-17T07:32:05.709Z,12.00
2023-09-17T07:33:08.260Z,12.52
2023-09-17T07:34:11.122Z,11.50
2023-09-17T07:35:12.841Z,14.48
2023-09-17T07:36:14.588Z,11.10
2023-09-17T07:37:16.479Z,10.95
2023-09-17T07:38:18.209Z,11.48
2023-09-17T07:39:19.952Z,10.13
2023-09-17T07:40:21.759Z,10.10
2023-09-17T07:41:23.582Z,11.98
2023-09-17T07:42:25.290Z,10.93
2023-09-17T07:43:28.322Z,10.73
2023-09-17T07:44:29.910Z,11.68
2023-09-17T07:45:31.676Z,12.15
2023-09-17T07:46:33.588Z,12.10
2023-09-17T07:47:35.291Z,9.93
2023-09-17T07:48:36.954Z,14.45
2023-09-17T07:49:39.049Z,11.13
2023-09-17T07:50:40.774Z,10.77
2023-09-17T07:51:45.500Z,11.18
2023-09-17T07:52:47.173Z,12.18
2023-09-17T07:53:48.953Z,11.93
2023-09-17T07:54:50.958Z,11.95
2023-09-17T07:55:53.169Z,11.13
2023-09-17T07:56:54.798Z,11.13
2023-09-17T07:57:56.694Z,11.27
2023-09-17T07:58:59.788Z,12.18
2023-09-17T08:00:01.475Z,12.02
2023-09-17T08:01:06.229Z,13.50
2023-09-17T08:02:08.197Z,13.20
2023-09-17T08:03:10.699Z,14.35
2023-09-17T08:04:12.631Z,9.90
2023-09-17T08:05:14.551Z,11.73
2023-09-17T08:06:16.343Z,10.05
2023-09-17T08:07:18.426Z,10.05
2023-09-17T08:08:20.072Z,9.57
2023-09-17T08:09:21.777Z,11.35
2023-09-17T08:10:23.656Z,9.80
2023-09-17T08:11:27.505Z,9.85
2023-09-17T08:12:29.168Z,10.70
2023-09-17T08:13:30.924Z,9.07
2023-09-17T08:14:34.717Z,10.88
2023-09-17T08:16:38.489Z,12.32
2023-09-17T08:17:40.257Z,12.18
2023-09-17T08:18:42.203Z,10.40
2023-09-17T08:19:43.845Z,11.25
2023-09-17T08:20:45.713Z,11.32
2023-09-17T08:21:47.351Z,10.20
2023-09-17T08:22:50.055Z,10.60
2023-09-17T08:23:51.870Z,10.18
2023-09-17T08:24:53.755Z,8.27
2023-09-17T08:25:55.428Z,11.18
2023-09-17T08:26:57.656Z,9.43
2023-09-17T08:27:59.558Z,10.32
2023-09-17T08:29:01.226Z,8.98
2023-09-17T08:30:05.615Z,9.52
2023-09-17T08:31:07.249Z,10.57
2023-09-17T08:32:08.823Z,9.57
2023-09-17T08:33:10.523Z,9.75
2023-09-17T08:34:12.582Z,12.02
2023-09-17T08:35:14.710Z,9.60
2023-09-17T08:36:16.511Z,10.43
2023-09-17T08:37:18.204Z,10.70
2023-09-17T08:38:19.900Z,10.75
2023-09-17T08:39:21.963Z,9.88
2023-09-17T08:40:28.509Z,10.48
2023-09-17T08:41:31.682Z,11.07
2023-09-17T08:42:33.599Z,10.55
2023-09-17T08:43:35.562Z,11.32
2023-09-17T08:44:38.934Z,10.07
2023-09-17T08:45:43.253Z,11.07
2023-09-17T08:46:45.835Z,9.13
2023-09-17T08:47:47.657Z,10.77
2023-09-17T08:48:49.688Z,12.43
2023-09-17T08:49:51.394Z,10.32
2023-09-17T08:50:54.336Z,10.77
2023-09-17T08:51:57.873Z,12.80
2023-09-17T08:53:03.105Z,9.77
2023-09-17T08:54:08.619Z,9.15
2023-09-17T08:55:27.930Z,10.07
2023-09-17T08:56:31.827Z,20.30
2023-09-17T08:57:39.987Z,10.38
2023-09-17T08:58:47.758Z,9.20
2023-09-17T08:59:55.028Z,14.68
2023-09-17T09:01:04.022Z,8.70
2023-09-17T09:02:22.790Z,10.25
2023-09-17T09:03:27.326Z,10.00
2023-09-17T09:04:32.787Z,8.38
2023-09-17T09:05:35.012Z,8.50
2023-09-17T09:06:38.149Z,9.48
2023-09-17T09:07:40.545Z,9.70
2023-09-17T09:08:43.689Z,9.23
2023-09-17T09:09:46.062Z,9.60
2023-09-17T09:10:49.620Z,8.70
2023-09-17T09:12:53.304Z,8.35
2023-09-17T09:13:56.092Z,7.63
2023-09-17T09:14:58.608Z,8.07
2023-09-17T09:16:01.864Z,9.10
2023-09-17T09:17:03.814Z,9.18
2023-09-17T09:18:06.166Z,10.05
2023-09-17T09:19:08.007Z,8.07
2023-09-17T09:20:11.978Z,8.90
2023-09-17T09:21:13.862Z,8.68
2023-09-17T09:22:15.462Z,7.97
2023-09-17T09:23:17.396Z,8.65
2023-09-17T09:24:19.053Z,10.63
2023-09-17T09:25:20.718Z,7.72
2023-09-17T09:26:23.552Z,7.03
2023-09-17T09:27:25.324Z,8.50
2023-09-17T09:28:30.915Z,9.25
2023-09-17T09:29:32.516Z,7.07
2023-09-17T09:30:36.768Z,9.20
2023-09-17T09:31:39.888Z,8.60
2023-09-17T09:32:42.732Z,7.50
2023-09-17T09:33:45.097Z,7.88
2023-09-17T09:34:48.106Z,7.97
2023-09-17T09:35:49.932Z,7.72
2023-09-17T09:36:51.995Z,7.40
2023-09-17T09:37:53.901Z,9.48
2023-09-17T09:38:56.539Z,7.88
2023-09-17T09:39:58.990Z,7.05
2023-09-17T09:41:00.875Z,6.95
2023-09-17T09:42:02.686Z,7.70
2023-09-17T09:43:04.744Z,6.90
2023-09-17T09:44:08.889Z,8.85
2023-09-17T09:45:32.877Z,8.07
2023-09-17T09:48:14.352Z,8.45
2023-09-17T09:49:16.036Z,6.30
2023-09-17T09:50:24.820Z,7.07
2023-09-17T09:51:26.613Z,6.47
2023-09-17T09:52:28.340Z,7.03
2023-09-17T09:53:29.946Z,8.00
2023-09-17T09:54:31.543Z,6.65
2023-09-17T09:55:33.585Z,6.25
2023-09-17T09:56:35.539Z,6.28
2023-09-17T09:57:40.181Z,6.28
2023-09-17T09:58:44.015Z,7.10
2023-09-17T09:59:48.326Z,7.40
2023-09-17T10:00:50.116Z,6.82
2023-09-17T10:01:52.027Z,9.02
2023-09-17T10:02:55.588Z,6.80
2023-09-17T10:03:58.551Z,6.10
2023-09-17T10:05:00.375Z,6.03
2023-09-17T10:06:03.469Z,6.15
2023-09-17T10:07:05.615Z,7.72
2023-09-17T10:08:09.180Z,6.18
2023-09-17T10:10:12.938Z,6.47
2023-09-17T10:11:16.009Z,9.48
2023-09-17T10:12:18.250Z,7.47
2023-09-17T10:13:21.768Z,9.35
2023-09-17T10:14:48.367Z,8.70
2023-09-17T10:15:48.437Z,5.90
2023-09-17T10:16:50.860Z,6.45
2023-09-17T10:17:52.907Z,11.52
2023-09-17T10:18:57.189Z,8.00
2023-09-17T10:20:03.567Z,6.50
2023-09-17T10:21:06.284Z,5.25
2023-09-17T10:22:09.719Z,6.82
2023-09-17T10:23:13.496Z,6.05
2023-09-17T10:24:16.277Z,6.78
2023-09-17T10:25:19.071Z,5.93
2023-09-17T10:26:22.953Z,6.07
2023-09-17T10:27:25.072Z,9.40
2023-09-17T10:28:27.616Z,6.65
2023-09-17T10:29:31.961Z,6.43
2023-09-17T10:30:33.939Z,5.90
2023-09-17T10:31:37.373Z,6.00
2023-09-17T10:33:44.852Z,6.68
2023-09-17T10:34:48.603Z,7.32
2023-09-17T10:35:52.053Z,8.38
2023-09-17T10:36:55.862Z,5.20
2023-09-17T10:38:01.984Z,8.20
2023-09-17T10:39:04.169Z,5.32
2023-09-17T10:40:08.961Z,5.18
2023-09-17T10:41:11.801Z,5.63
2023-09-17T10:42:14.581Z,5.45
2023-09-17T10:43:18.537Z,6.00
2023-09-17T10:44:21.406Z,6.53
2023-09-17T10:45:26.837Z,7.13
2023-09-17T10:46:32.019Z,7.65
2023-09-17T10:47:34.501Z,7.05
2023-09-17T10:48:37.625Z,5.60
2023-09-17T10:49:40.154Z,6.13
2023-09-17T10:50:43.803Z,6.63
2023-09-17T10:52:49.966Z,5.30
2023-09-17T10:53:53.151Z,5.18
2023-09-17T10:54:54.906Z,7.25
2023-09-17T10:56:01.331Z,7.95
2023-09-17T10:57:08.080Z,5.47
2023-09-17T10:58:16.941Z,4.97
2023-09-17T10:59:20.334Z,5.20
2023-09-17T11:00:24.174Z,4.93
2023-09-17T11:01:30.989Z,7.00
2023-09-17T11:02:35.628Z,6.45
2023-09-17T11:03:41.186Z,8.93
2023-09-17T11:04:45.086Z,5.90
2023-09-17T11:05:49.098Z,5.80
2023-09-17T11:06:52.190Z,5.95
2023-09-17T11:07:58.447Z,6.03
2023-09-17T11:09:00.247Z,6.55
2023-09-17T11:10:02.332Z,5.70
2023-09-17T11:11:04.130Z,5.97
2023-09-17T11:12:09.310Z,6.25
2023-09-17T11:13:14.534Z,6.28
2023-09-17T11:14:17.015Z,5.50
2023-09-17T11:15:19.337Z,5.90
2023-09-17T11:16:22.328Z,6.10
2023-09-17T11:17:31.031Z,6.03
2023-09-17T11:18:34.407Z,5.90
2023-09-17T11:19:39.701Z,5.07
2023-09-17T11:21:08.348Z,5.53
2023-09-17T11:22:12.957Z,7.28
2023-09-17T11:23:16.043Z,6.18
2023-09-17T11:24:20.945Z,5.85
2023-09-17T11:25:34.431Z,5.57
2023-09-17T11:26:38.378Z,6.22
2023-09-17T11:29:10.327Z,6.97
2023-09-17T11:30:16.073Z,7.40
2023-09-17T11:31:19.139Z,5.85
2023-09-17T11:32:24.126Z,6.05
2023-09-17T11:33:28.485Z,6.13
2023-09-17T11:34:31.815Z,6.93
2023-09-17T11:35:33.719Z,5.97
2023-09-17T11:36:37.659Z,5.43
2023-09-17T11:38:45.873Z,5.00
2023-09-17T11:39:52.390Z,5.85
2023-09-17T11:41:08.193Z,4.88
2023-09-17T11:43:14.576Z,6.35
2023-09-17T11:44:17.052Z,5.63
2023-09-17T11:45:18.818Z,5.30
2023-09-17T11:46:21.562Z,4.85
2023-09-17T11:47:27.939Z,4.57
2023-09-17T11:48:34.481Z,4.55
2023-09-17T11:49:36.675Z,4.78
2023-09-17T11:50:38.830Z,5.95
2023-09-17T11:51:50.352Z,4.32
2023-09-17T11:53:03.430Z,4.82
2023-09-17T11:54:06.567Z,4.10
2023-09-17T11:55:25.538Z,4.00
2023-09-17T11:56:30.503Z,3.58
2023-09-17T11:57:32.306Z,5.28
2023-09-17T11:58:36.291Z,4.00
2023-09-17T12:00:01.509Z,5.40
2023-09-17T12:01:07.821Z,4.68
2023-09-17T12:02:10.599Z,4.82
2023-09-17T12:03:13.599Z,5.32
2023-09-17T12:04:19.271Z,7.97
2023-09-17T12:05:23.149Z,3.53
2023-09-17T12:06:29.376Z,3.45
2023-09-17T12:09:35.577Z,3.30
2023-09-17T12:10:49.713Z,5.18
2023-09-17T12:11:05.632Z,3.90
2023-09-17T12:12:18.171Z,3.60
2023-09-17T12:14:28.512Z,4.68
2023-09-17T12:15:34.180Z,3.97
2023-09-17T12:16:36.124Z,4.95
2023-09-17T12:17:55.659Z,5.88
2023-09-17T12:19:18.567Z,4.20
2023-09-17T12:20:41.894Z,8.02
2023-09-17T12:21:55.923Z,4.07
2023-09-17T12:23:23.103Z,5.78
2023-09-17T12:25:01.916Z,7.03
2023-09-17T12:26:52.906Z,4.88
2023-09-17T12:28:47.797Z,6.10
2023-09-17T12:29:50.041Z,4.28
2023-09-17T12:30:55.090Z,5.18
2023-09-17T12:31:57.204Z,4.20
2023-09-17T12:33:00.010Z,6.40
2023-09-17T12:34:01.673Z,3.83
2023-09-17T12:35:03.690Z,5.28
2023-09-17T12:36:08.387Z,5.65
2023-09-17T12:37:10.031Z,5.50
2023-09-17T12:38:12.989Z,5.72
2023-09-17T12:39:14.968Z,4.68
2023-09-17T12:40:16.771Z,5.80
2023-09-17T12:41:28.211Z,6.13
2023-09-17T12:42:37.708Z,4.22
2023-09-17T12:43:39.567Z,5.97
2023-09-17T12:44:41.278Z,5.47
2023-09-17T12:45:42.991Z,6.18
2023-09-17T12:46:45.026Z,4.30
2023-09-17T12:47:46.917Z,5.40
2023-09-17T12:48:48.726Z,4.13
2023-09-17T12:49:50.382Z,5.10
2023-09-17T12:50:52.105Z,6.20
2023-09-17T12:51:54.168Z,4.93
2023-09-17T12:52:55.939Z,4.13
2023-09-17T12:53:59.284Z,4.38
2023-09-17T12:55:01.168Z,6.28
2023-09-17T12:56:04.453Z,4.93
2023-09-17T12:57:07.108Z,3.65
2023-09-17T12:58:08.987Z,5.28
2023-09-17T12:59:10.637Z,3.72
2023-09-17T13:00:13.430Z,3.75
2023-09-17T13:01:15.454Z,3.70
2023-09-17T13:02:17.195Z,3.60
2023-09-17T13:03:19.255Z,4.57
2023-09-17T13:04:21.035Z,4.68
2023-09-17T13:05:23.011Z,4.00
2023-09-17T13:06:26.661Z,4.20
2023-09-17T13:07:31.720Z,5.93
2023-09-17T13:08:33.474Z,4.40
2023-09-17T13:09:36.606Z,4.47
2023-09-17T13:10:38.752Z,4.07
2023-09-17T13:11:40.469Z,4.43
2023-09-17T13:12:44.773Z,3.83
2023-09-17T13:13:47.392Z,7.15
2023-09-17T13:14:49.482Z,3.95
2023-09-17T13:15:51.342Z,3.83
2023-09-17T13:16:53.382Z,3.58
2023-09-17T13:17:56.210Z,4.68
2023-09-17T13:18:57.990Z,6.15
2023-09-17T13:19:59.997Z,5.22
2023-09-17T13:21:01.783Z,3.97
2023-09-17T13:22:03.875Z,3.47
2023-09-17T13:23:05.522Z,5.55
2023-09-17T13:24:12.628Z,3.72
2023-09-17T13:25:16.635Z,6.22
2023-09-17T13:26:18.637Z,4.13
2023-09-17T13:27:22.848Z,3.83
2023-09-17T13:28:24.695Z,4.20
2023-09-17T13:29:34.672Z,3.85
2023-09-17T13:30:38.876Z,4.03
2023-09-17T13:31:41.347Z,3.47
2023-09-17T13:32:43.122Z,5.97
2023-09-17T13:33:45.778Z,4.22
2023-09-17T13:34:48.327Z,4.10
2023-09-17T13:35:51.245Z,3.35
2023-09-17T13:36:53.020Z,5.18
2023-09-17T13:37:54.745Z,3.20
2023-09-17T13:38:56.563Z,3.58
2023-09-17T13:39:58.178Z,4.07
2023-09-17T13:41:01.384Z,5.25
2023-09-17T13:42:03.472Z,3.83
2023-09-17T13:43:05.738Z,5.20
2023-09-17T13:44:07.645Z,3.50
2023-09-17T13:45:09.881Z,4.90
2023-09-17T13:46:16.210Z,3.47
2023-09-17T13:47:17.863Z,3.70
2023-09-17T13:48:19.478Z,3.47
2023-09-17T13:49:21.128Z,4.38
2023-09-17T13:50:22.774Z,3.75
2023-09-17T13:51:24.384Z,4.32
2023-09-17T13:52:26.006Z,4.50
2023-09-17T13:53:27.696Z,3.30
2023-09-17T13:54:29.306Z,3.92
2023-09-17T13:55:31.531Z,3.83
2023-09-17T13:56:34.498Z,4.18
2023-09-17T13:57:36.086Z,3.47
2023-09-17T13:58:38.016Z,3.63
2023-09-17T13:59:39.730Z,3.08
2023-09-17T14:00:42.013Z,4.55
2023-09-17T14:01:43.754Z,3.42
2023-09-17T14:02:45.489Z,4.18
2023-09-17T14:03:47.201Z,3.42
2023-09-17T14:04:49.045Z,5.03
2023-09-17T14:05:50.833Z,4.07
2023-09-17T14:06:53.835Z,3.65
2023-09-17T14:07:55.575Z,3.05
2023-09-17T14:08:57.356Z,4.75
2023-09-17T14:09:59.125Z,3.60
2023-09-17T14:11:01.719Z,4.05
2023-09-17T14:12:05.637Z,3.78
2023-09-17T14:13:07.306Z,3.38
2023-09-17T14:14:09.133Z,4.05
2023-09-17T14:15:11.180Z,3.80
2023-09-17T14:16:13.083Z,5.88
2023-09-17T14:17:16.301Z,4.72
2023-09-17T14:18:19.320Z,3.75
2023-09-17T14:19:20.990Z,3.35
2023-09-17T14:20:22.644Z,5.25
2023-09-17T14:21:24.399Z,5.28
2023-09-17T14:22:26.105Z,4.13
2023-09-17T14:23:27.722Z,4.47